Clam Gulch, Alaska
Current Conditions -  °F | °C
As of 6:36 PM on Monday 20 Oct 2014 (Local Time) from PASX Reporting Station
Overcast Overcast  
Wind Chill: 37°   Ceiling: 10000
Heat Index: 37°   Visibility: 10mi
Dew Point: 28°   Wind: 0mph
Humidity: 70%   Direction: NA
Pressure: 29.12"   Gusts: NA
Location:  60.25°N, 151.38°W
Report Text: PASX 210236Z AUTO 00000KT 10SM BKN100 OVC120 03/M02 A2912 RMK AO1
Loading
Personal Weather Stations






























Interactive Weather Map
Tropical Storm Tracking
New forecast layout! Learn more

10-Day Weather Forecast

Advertisements
Track Severe Weather on mobile